createdAt,value
2019-03-23T00:02:05.157Z,6.62
2019-03-23T00:04:36.127Z,7.03
2019-03-23T00:07:07.081Z,4.20
2019-03-23T00:09:38.028Z,10.08
2019-03-23T00:12:08.971Z,7.33
2019-03-23T00:14:39.850Z,4.17
2019-03-23T00:17:10.842Z,4.50
2019-03-23T00:19:42.905Z,7.10
2019-03-23T00:22:13.822Z,3.72
2019-03-23T00:24:44.810Z,4.85
2019-03-23T00:27:15.897Z,4.78
2019-03-23T00:29:46.859Z,3.70
2019-03-23T00:32:18.043Z,3.75
2019-03-23T00:34:49.044Z,5.50
2019-03-23T00:37:20.044Z,4.17
2019-03-23T00:39:50.899Z,5.35
2019-03-23T00:42:22.020Z,4.08
2019-03-23T00:44:52.962Z,7.78
2019-03-23T00:47:23.991Z,4.08
2019-03-23T00:49:54.988Z,7.47
2019-03-23T00:52:26.080Z,6.78
2019-03-23T00:54:57.262Z,4.20
2019-03-23T00:57:28.387Z,4.90
2019-03-23T01:00:00.315Z,6.33
2019-03-23T01:02:31.361Z,4.60
2019-03-23T01:05:02.463Z,7.37
2019-03-23T01:07:33.584Z,4.78
2019-03-23T01:10:07.870Z,6.97
2019-03-23T01:12:38.803Z,4.72
2019-03-23T01:15:11.244Z,2.27
2019-03-23T01:17:42.271Z,4.30
2019-03-23T01:20:13.772Z,4.70
2019-03-23T01:22:44.614Z,4.12
2019-03-23T01:25:15.590Z,3.37
2019-03-23T01:27:47.038Z,8.93
2019-03-23T01:30:17.896Z,3.42
2019-03-23T01:32:48.875Z,3.90
2019-03-23T01:35:19.831Z,4.35
2019-03-23T01:37:50.754Z,8.35
2019-03-23T01:40:21.678Z,4.90
2019-03-23T01:42:52.626Z,4.70
2019-03-23T01:45:23.733Z,4.40
2019-03-23T01:47:54.680Z,3.50
2019-03-23T01:50:25.711Z,5.95
2019-03-23T01:52:56.661Z,6.15
2019-03-23T01:55:27.553Z,3.85
2019-03-23T01:57:59.639Z,6.12
2019-03-23T02:00:31.320Z,11.68
2019-03-23T02:03:02.387Z,5.60
2019-03-23T02:05:33.203Z,6.35
2019-03-23T02:08:04.078Z,4.95
2019-03-23T02:10:34.982Z,5.15
2019-03-23T02:13:06.260Z,3.95
2019-03-23T02:15:37.248Z,5.67
2019-03-23T02:18:08.148Z,6.12
2019-03-23T02:20:39.087Z,2.80
2019-03-23T02:23:10.042Z,5.65
2019-03-23T02:25:40.898Z,3.02
2019-03-23T02:28:11.945Z,7.00
2019-03-23T02:30:42.970Z,5.08
2019-03-23T02:33:14.103Z,5.35
2019-03-23T02:35:46.125Z,5.03
2019-03-23T02:38:17.232Z,3.80
2019-03-23T02:40:49.384Z,3.70
2019-03-23T02:43:20.526Z,7.35
2019-03-23T02:45:51.551Z,7.10
2019-03-23T02:48:22.654Z,4.92
2019-03-23T02:50:53.751Z,6.10
2019-03-23T02:53:24.851Z,5.83
2019-03-23T02:55:57.177Z,7.75
2019-03-23T02:58:28.235Z,5.00
2019-03-23T03:00:59.964Z,4.30
2019-03-23T03:03:31.031Z,8.55
2019-03-23T03:06:01.895Z,6.28
2019-03-23T03:08:33.161Z,6.97
2019-03-23T03:11:04.130Z,7.03
2019-03-23T03:13:35.012Z,8.18
2019-03-23T03:16:06.186Z,5.20
2019-03-23T03:18:37.121Z,10.60
2019-03-23T03:21:07.996Z,4.03
2019-03-23T03:23:41.127Z,5.78
2019-03-23T03:28:44.846Z,5.10
2019-03-23T03:31:15.714Z,7.17
2019-03-23T03:33:47.751Z,6.55
2019-03-23T03:36:19.613Z,3.22
2019-03-23T03:38:50.817Z,3.52
2019-03-23T03:41:21.828Z,3.75
2019-03-23T03:43:54.247Z,7.60
2019-03-23T03:46:25.231Z,3.42
2019-03-23T03:48:56.175Z,4.62
2019-03-23T03:51:26.971Z,4.55
2019-03-23T03:53:57.846Z,3.47
2019-03-23T03:56:28.755Z,5.85
2019-03-23T03:58:59.704Z,6.72
2019-03-23T04:01:32.009Z,4.05
2019-03-23T04:04:03.112Z,4.00
2019-03-23T04:06:33.902Z,5.70
2019-03-23T04:09:06.530Z,3.80
2019-03-23T04:11:37.402Z,3.12
2019-03-23T04:14:08.274Z,3.45
2019-03-23T04:16:39.198Z,4.87
2019-03-23T04:19:10.199Z,7.55
2019-03-23T04:21:41.161Z,6.72
2019-03-23T04:24:12.037Z,5.55
2019-03-23T04:26:43.034Z,4.85
2019-03-23T04:29:13.888Z,7.08
2019-03-23T04:31:44.880Z,4.80
2019-03-23T04:34:15.916Z,6.85
2019-03-23T04:36:46.864Z,10.48
2019-03-23T04:39:17.848Z,5.40
2019-03-23T04:41:48.847Z,7.28
2019-03-23T04:44:19.830Z,4.08
2019-03-23T04:46:51.479Z,4.95
2019-03-23T04:49:27.890Z,3.85
2019-03-23T04:51:58.943Z,6.17
2019-03-23T04:54:31.263Z,7.08
2019-03-23T04:57:02.306Z,3.60
2019-03-23T04:59:33.369Z,4.97
2019-03-23T05:02:05.258Z,4.42
2019-03-23T05:04:36.444Z,5.67
2019-03-23T05:07:07.779Z,4.50
2019-03-23T05:09:39.024Z,6.62
2019-03-23T05:12:10.033Z,5.62
2019-03-23T05:14:41.006Z,4.22
2019-03-23T05:17:12.019Z,5.10
2019-03-23T05:19:42.983Z,5.83
2019-03-23T05:22:14.055Z,6.65
2019-03-23T05:24:45.069Z,5.45
2019-03-23T05:27:16.058Z,3.75
2019-03-23T05:29:47.056Z,4.78
2019-03-23T05:32:18.196Z,5.37
2019-03-23T05:34:49.468Z,4.45
2019-03-23T05:37:20.561Z,3.30
2019-03-23T05:39:51.657Z,6.30
2019-03-23T05:42:22.661Z,3.02
2019-03-23T05:44:53.659Z,7.15
2019-03-23T05:47:24.807Z,3.55
2019-03-23T05:49:55.915Z,6.20
2019-03-23T05:52:27.041Z,4.15
2019-03-23T05:54:58.009Z,5.00
2019-03-23T05:57:29.045Z,4.33
2019-03-23T06:00:00.363Z,5.33
2019-03-23T06:02:32.238Z,6.03
2019-03-23T06:05:03.330Z,4.45
2019-03-23T06:07:34.326Z,4.10
2019-03-23T06:10:08.225Z,4.53
2019-03-23T06:12:39.155Z,6.30
2019-03-23T06:15:10.898Z,7.28
2019-03-23T06:17:41.797Z,6.67
2019-03-23T06:20:12.714Z,4.47
2019-03-23T06:22:43.584Z,5.72
2019-03-23T06:25:14.543Z,5.95
2019-03-23T06:27:47.779Z,7.70
2019-03-23T06:30:18.811Z,7.80
2019-03-23T06:32:49.834Z,4.95
2019-03-23T06:35:20.962Z,8.93
2019-03-23T06:37:51.958Z,4.80
2019-03-23T06:40:22.914Z,4.83
2019-03-23T06:42:59.661Z,5.70
2019-03-23T06:45:26.937Z,5.90
2019-03-23T06:47:58.076Z,6.50
2019-03-23T06:50:29.192Z,5.17
2019-03-23T06:53:00.198Z,5.30
2019-03-23T06:55:31.548Z,7.37
2019-03-23T06:58:02.751Z,3.47
2019-03-23T07:00:33.755Z,6.05
2019-03-23T07:03:10.012Z,5.65
2019-03-23T07:05:41.366Z,3.77
2019-03-23T07:08:14.518Z,7.17
2019-03-23T07:10:45.652Z,9.63
2019-03-23T07:13:16.640Z,8.03
2019-03-23T07:15:47.755Z,9.55
2019-03-23T07:18:18.720Z,6.97
2019-03-23T07:20:49.635Z,10.35
2019-03-23T07:23:20.596Z,8.10
2019-03-23T07:25:51.962Z,9.20
2019-03-23T07:28:24.420Z,6.53
2019-03-23T07:30:55.392Z,6.47
2019-03-23T07:33:26.316Z,5.10
2019-03-23T07:35:57.198Z,6.22
2019-03-23T07:38:28.070Z,5.33
2019-03-23T07:40:59.009Z,8.58
2019-03-23T07:43:29.813Z,5.25
2019-03-23T07:46:00.688Z,7.67
2019-03-23T07:48:31.496Z,6.60
2019-03-23T07:51:02.353Z,6.58
2019-03-23T07:53:33.185Z,6.62
2019-03-23T07:56:04.130Z,6.78
2019-03-23T07:58:34.915Z,5.40
2019-03-23T08:01:05.768Z,8.83
2019-03-23T08:03:37.364Z,7.20
2019-03-23T08:06:08.357Z,6.30
2019-03-23T08:08:42.030Z,7.42
2019-03-23T08:11:13.046Z,23.65
2019-03-23T08:13:43.977Z,6.92
2019-03-23T08:16:14.977Z,9.03
2019-03-23T08:18:45.808Z,5.37
2019-03-23T08:21:16.762Z,8.80
2019-03-23T08:23:47.793Z,9.13
2019-03-23T08:26:18.682Z,9.70
2019-03-23T08:28:50.556Z,6.20
2019-03-23T08:31:21.537Z,10.88
2019-03-23T08:33:52.496Z,4.05
2019-03-23T08:36:24.609Z,8.10
2019-03-23T08:38:56.431Z,5.08
2019-03-23T08:41:27.490Z,11.28
2019-03-23T08:43:58.367Z,6.28
2019-03-23T08:46:30.346Z,11.03
2019-03-23T08:49:01.199Z,6.78
2019-03-23T08:51:32.211Z,6.55
2019-03-23T08:54:03.147Z,6.78
2019-03-23T08:56:34.082Z,4.10
2019-03-23T08:59:07.012Z,4.78
2019-03-23T09:01:37.951Z,6.72
2019-03-23T09:04:09.846Z,3.35
2019-03-23T09:06:40.843Z,9.08
2019-03-23T09:09:11.666Z,6.05
2019-03-23T09:11:42.660Z,10.08
2019-03-23T09:14:13.532Z,6.40
2019-03-23T09:16:44.554Z,5.10
2019-03-23T09:19:15.413Z,9.08
2019-03-23T09:21:46.309Z,8.48
2019-03-23T09:24:17.198Z,6.87
2019-03-23T09:26:49.092Z,4.42
2019-03-23T09:29:20.050Z,3.77
2019-03-23T09:31:51.047Z,5.65
2019-03-23T09:34:21.972Z,5.65
2019-03-23T09:36:52.987Z,5.12
2019-03-23T09:39:23.877Z,5.60
2019-03-23T09:41:54.884Z,3.52
2019-03-23T09:44:25.771Z,4.90
2019-03-23T09:46:56.646Z,7.33
2019-03-23T09:49:27.506Z,4.62
2019-03-23T09:51:58.547Z,6.53
2019-03-23T09:54:29.390Z,5.90
2019-03-23T09:57:00.222Z,6.03
2019-03-23T09:59:32.905Z,12.17
2019-03-23T10:02:03.897Z,12.03
2019-03-23T10:04:35.553Z,13.13
2019-03-23T10:07:06.621Z,4.28
2019-03-23T10:09:37.697Z,3.62
2019-03-23T10:12:08.671Z,4.25
2019-03-23T10:14:39.522Z,4.03
2019-03-23T10:17:10.436Z,6.75
2019-03-23T10:19:41.398Z,8.78
2019-03-23T10:22:13.300Z,12.50
2019-03-23T10:24:44.238Z,8.03
2019-03-23T10:27:15.170Z,5.15
2019-03-23T10:29:46.061Z,3.98
2019-03-23T10:32:18.803Z,4.87
2019-03-23T10:34:49.768Z,6.83
2019-03-23T10:37:22.506Z,4.78
2019-03-23T10:39:53.493Z,6.92
2019-03-23T10:42:24.509Z,4.83
2019-03-23T10:44:55.481Z,4.17
2019-03-23T10:47:29.251Z,8.13
2019-03-23T10:50:00.317Z,14.93
2019-03-23T10:52:31.195Z,7.90
2019-03-23T10:55:02.179Z,4.03
2019-03-23T10:57:33.104Z,10.48
2019-03-23T11:00:07.892Z,8.65
2019-03-23T11:02:40.271Z,3.55
2019-03-23T11:05:12.121Z,4.85
2019-03-23T11:07:43.088Z,2.60
2019-03-23T11:10:14.014Z,3.67
2019-03-23T11:12:45.044Z,3.92
2019-03-23T11:15:16.005Z,6.65
2019-03-23T11:17:46.823Z,2.77
2019-03-23T11:20:17.769Z,7.78
2019-03-23T11:22:48.830Z,3.65
2019-03-23T11:25:19.669Z,3.50
2019-03-23T11:27:50.536Z,5.83
2019-03-23T11:30:21.506Z,4.58
2019-03-23T11:32:52.414Z,2.95
2019-03-23T11:35:23.410Z,3.00
2019-03-23T11:37:56.317Z,4.30
2019-03-23T11:40:27.432Z,4.72
2019-03-23T11:42:58.302Z,3.87
2019-03-23T11:45:29.293Z,5.75
2019-03-23T11:48:00.221Z,6.40
2019-03-23T11:50:31.094Z,7.60
2019-03-23T11:53:01.964Z,4.58
2019-03-23T11:55:32.762Z,5.62
2019-03-23T11:58:03.710Z,3.87
2019-03-23T12:00:34.766Z,7.33
2019-03-23T12:03:05.597Z,7.17
2019-03-23T12:05:37.237Z,4.35
2019-03-23T12:08:08.263Z,4.70
2019-03-23T12:10:39.151Z,3.33
2019-03-23T12:13:10.106Z,3.37
2019-03-23T12:15:40.947Z,3.02
2019-03-23T12:18:11.799Z,3.98
2019-03-23T12:20:42.748Z,2.67
2019-03-23T12:23:13.765Z,3.77
2019-03-23T12:25:44.997Z,4.40
2019-03-23T12:28:15.895Z,5.40
2019-03-23T12:30:46.803Z,5.20
2019-03-23T12:33:17.852Z,20.43
2019-03-23T12:35:48.813Z,13.18
2019-03-23T12:38:19.646Z,5.75
2019-03-23T12:40:50.625Z,4.83
2019-03-23T12:43:21.654Z,5.28
2019-03-23T12:45:52.499Z,4.03
2019-03-23T12:48:23.318Z,5.67
2019-03-23T12:50:54.211Z,3.95
2019-03-23T12:53:25.207Z,3.10
2019-03-23T12:55:56.037Z,6.62
2019-03-23T12:58:27.001Z,3.80
2019-03-23T13:00:57.915Z,4.20
2019-03-23T13:03:28.753Z,2.52
2019-03-23T13:06:00.658Z,9.90
2019-03-23T13:08:31.769Z,4.55
2019-03-23T13:11:02.624Z,3.37
2019-03-23T13:13:34.629Z,2.45
2019-03-23T13:16:05.536Z,5.20
2019-03-23T13:18:36.504Z,3.25
2019-03-23T13:21:07.394Z,3.52
2019-03-23T13:23:38.243Z,4.95
2019-03-23T13:26:09.031Z,3.30
2019-03-23T13:28:39.852Z,4.25
2019-03-23T13:31:10.666Z,5.03
2019-03-23T13:33:41.546Z,8.55
2019-03-23T13:36:12.433Z,4.72
2019-03-23T13:38:43.307Z,3.35
2019-03-23T13:41:14.293Z,18.05
2019-03-23T13:43:45.156Z,10.23
2019-03-23T13:46:15.972Z,8.05
2019-03-23T13:48:47.957Z,4.72
2019-03-23T13:51:18.766Z,6.50
2019-03-23T13:53:49.692Z,4.03
2019-03-23T13:56:20.593Z,5.78
2019-03-23T13:58:51.492Z,4.55
2019-03-23T14:01:23.365Z,3.87
2019-03-23T14:03:54.371Z,7.50
2019-03-23T14:06:26.158Z,5.95
2019-03-23T14:08:57.083Z,6.00
2019-03-23T14:11:28.059Z,4.50
2019-03-23T14:13:58.953Z,4.65
2019-03-23T14:16:29.791Z,4.25
2019-03-23T14:19:00.724Z,6.50
2019-03-23T14:21:31.641Z,10.38
2019-03-23T14:24:02.546Z,4.53
2019-03-23T14:26:33.418Z,4.25
2019-03-23T14:29:04.281Z,5.87
2019-03-23T14:31:35.061Z,4.90
2019-03-23T14:34:05.895Z,6.42
2019-03-23T14:36:36.706Z,14.50
2019-03-23T14:39:07.771Z,8.70
2019-03-23T14:41:38.640Z,7.20
2019-03-23T14:44:09.710Z,6.72
2019-03-23T14:46:40.698Z,11.65
2019-03-23T14:49:11.598Z,10.32
2019-03-23T14:51:42.669Z,9.75
2019-03-23T14:54:13.723Z,10.03
2019-03-23T14:56:44.622Z,7.95
2019-03-23T14:59:15.569Z,9.40
2019-03-23T15:01:46.595Z,12.25
2019-03-23T15:04:18.654Z,8.50
2019-03-23T15:06:50.450Z,9.73
2019-03-23T15:09:21.430Z,11.22
2019-03-23T15:11:52.589Z,11.78
2019-03-23T15:14:23.772Z,9.88
2019-03-23T15:16:54.697Z,10.35
2019-03-23T15:19:25.661Z,18.10
2019-03-23T15:21:56.635Z,8.50
2019-03-23T15:24:27.570Z,9.25
2019-03-23T15:26:58.421Z,13.35
2019-03-23T15:29:30.272Z,15.55
2019-03-23T15:32:01.432Z,10.05
2019-03-23T15:34:32.480Z,9.05
2019-03-23T15:37:03.455Z,11.33
2019-03-23T15:39:34.332Z,10.58
2019-03-23T15:42:05.173Z,8.88
2019-03-23T15:44:36.347Z,8.68
2019-03-23T15:47:07.158Z,7.80
2019-03-23T15:49:38.116Z,10.60
2019-03-23T15:54:41.647Z,30.10
2019-03-23T15:57:12.830Z,10.95
2019-03-23T15:59:43.766Z,8.13
2019-03-23T16:02:14.746Z,8.80
2019-03-23T16:04:45.731Z,9.30
2019-03-23T16:07:17.701Z,10.68
2019-03-23T16:09:48.963Z,10.85
2019-03-23T16:12:20.062Z,8.95
2019-03-23T16:14:51.193Z,8.25
2019-03-23T16:17:22.083Z,10.85
2019-03-23T16:19:54.641Z,12.13
2019-03-23T16:22:25.816Z,11.23
2019-03-23T16:24:57.096Z,12.15
2019-03-23T16:27:28.059Z,13.75
2019-03-23T16:29:59.104Z,10.82
2019-03-23T16:32:31.576Z,38.83
2019-03-23T16:35:02.552Z,15.63
2019-03-23T16:37:33.394Z,16.45
2019-03-23T16:40:07.664Z,13.95
2019-03-23T16:42:45.171Z,13.13
2019-03-23T16:45:12.908Z,20.67
2019-03-23T16:47:48.015Z,15.83
2019-03-23T16:50:20.683Z,15.05
2019-03-23T16:52:54.052Z,16.40
2019-03-23T16:55:27.338Z,21.65
2019-03-23T16:57:58.275Z,18.45
2019-03-23T17:00:36.119Z,26.70
2019-03-23T17:03:08.219Z,18.65
2019-03-23T17:05:42.158Z,19.55
2019-03-23T17:08:14.946Z,21.77
2019-03-23T17:10:48.427Z,21.95
2019-03-23T17:13:19.398Z,18.48
2019-03-23T17:15:50.473Z,25.35
2019-03-23T17:18:23.449Z,16.55
2019-03-23T17:20:54.446Z,21.50
2019-03-23T17:23:26.952Z,22.45
2019-03-23T17:25:59.730Z,19.32
2019-03-23T17:28:31.729Z,23.50
2019-03-23T17:31:02.650Z,22.07
2019-03-23T17:33:33.790Z,21.85
2019-03-23T17:36:04.898Z,19.98
2019-03-23T17:38:35.829Z,19.67
2019-03-23T17:41:10.265Z,18.12
2019-03-23T17:43:41.233Z,20.92
2019-03-23T17:46:13.828Z,16.00
2019-03-23T17:48:44.824Z,20.92
2019-03-23T17:51:20.330Z,27.77
2019-03-23T17:53:58.464Z,20.95
2019-03-23T17:56:26.627Z,19.12
2019-03-23T17:58:57.783Z,22.25
2019-03-23T18:01:29.050Z,21.80
2019-03-23T18:04:00.203Z,15.83
2019-03-23T18:06:31.399Z,16.10
2019-03-23T18:09:04.343Z,15.53
2019-03-23T18:11:35.830Z,15.00
2019-03-23T18:14:06.686Z,14.60
2019-03-23T18:16:37.604Z,13.28
2019-03-23T18:19:08.481Z,13.98
2019-03-23T18:21:39.426Z,13.65
2019-03-23T18:24:10.308Z,13.05
2019-03-23T18:26:41.288Z,11.33
2019-03-23T18:29:12.267Z,11.78
2019-03-23T18:31:43.283Z,12.95
2019-03-23T18:34:14.145Z,15.95
2019-03-23T18:36:45.098Z,11.40
2019-03-23T18:39:15.952Z,18.17
2019-03-23T18:41:46.964Z,14.13
2019-03-23T18:44:21.021Z,14.35
2019-03-23T18:46:52.053Z,9.68
2019-03-23T18:49:22.899Z,47.23
2019-03-23T18:51:53.905Z,18.73
2019-03-23T18:54:25.193Z,15.32
2019-03-23T18:56:57.482Z,20.12
2019-03-23T18:59:31.403Z,14.98
2019-03-23T19:02:02.571Z,17.50
2019-03-23T19:04:34.670Z,14.50
2019-03-23T19:07:05.745Z,18.02
2019-03-23T19:09:39.556Z,20.17
2019-03-23T19:12:11.108Z,21.02
2019-03-23T19:14:42.011Z,26.60
2019-03-23T19:17:13.156Z,21.20
2019-03-23T19:19:44.197Z,18.40
2019-03-23T19:22:15.216Z,26.70
2019-03-23T19:24:46.223Z,21.52
2019-03-23T19:27:17.300Z,24.35
2019-03-23T19:29:48.374Z,34.85
2019-03-23T19:32:19.527Z,35.83
2019-03-23T19:34:50.589Z,28.85
2019-03-23T19:37:22.795Z,27.45
2019-03-23T19:39:53.904Z,31.62
2019-03-23T19:42:25.049Z,25.52
2019-03-23T19:44:56.227Z,29.07
2019-03-23T19:47:27.270Z,34.88
2019-03-23T19:50:00.375Z,27.32
2019-03-23T19:52:33.593Z,31.33
2019-03-23T19:55:09.260Z,26.15
2019-03-23T19:57:42.022Z,21.52
2019-03-23T20:00:13.081Z,25.88
2019-03-23T20:02:44.353Z,23.02
2019-03-23T20:05:15.480Z,22.82
2019-03-23T20:07:46.730Z,25.62
2019-03-23T20:10:20.380Z,24.20
2019-03-23T20:12:52.000Z,24.85
2019-03-23T20:15:24.169Z,22.30
2019-03-23T20:17:56.824Z,24.82
2019-03-23T20:20:30.686Z,24.20
2019-03-23T20:23:03.453Z,26.93
2019-03-23T20:25:36.295Z,35.20
2019-03-23T20:28:07.524Z,34.40
2019-03-23T20:30:38.510Z,23.92
2019-03-23T20:33:19.064Z,31.50
2019-03-23T20:35:44.070Z,25.75
2019-03-23T20:38:15.135Z,24.65
2019-03-23T20:40:46.183Z,26.50
2019-03-23T20:43:17.286Z,28.50
2019-03-23T20:45:48.286Z,29.05
2019-03-23T20:48:21.586Z,30.25
2019-03-23T20:50:52.787Z,29.05
2019-03-23T20:53:23.931Z,37.75
2019-03-23T20:55:54.889Z,30.25
2019-03-23T20:58:29.047Z,32.55
2019-03-23T21:01:00.013Z,34.55
2019-03-23T21:03:30.962Z,27.32
2019-03-23T21:06:03.529Z,28.23
2019-03-23T21:08:34.640Z,34.00
2019-03-23T21:11:09.239Z,35.83
2019-03-23T21:13:39.408Z,33.35
2019-03-23T21:16:10.470Z,32.10
2019-03-23T21:18:41.542Z,36.93
2019-03-23T21:21:12.755Z,30.68
2019-03-23T21:23:43.878Z,34.53
2019-03-23T21:26:16.863Z,39.85
2019-03-23T21:28:47.953Z,40.23
2019-03-23T21:31:19.135Z,50.98
2019-03-23T21:33:50.294Z,49.95
2019-03-23T21:36:21.324Z,48.30
2019-03-23T21:38:53.468Z,45.12
2019-03-23T21:41:24.562Z,59.93
2019-03-23T21:43:55.687Z,50.40
2019-03-23T21:46:28.908Z,42.27
2019-03-23T21:48:59.940Z,42.05
2019-03-23T21:51:30.947Z,54.70
2019-03-23T21:54:01.993Z,50.20
2019-03-23T21:56:33.092Z,58.23
2019-03-23T21:59:04.122Z,57.08
2019-03-23T22:01:35.525Z,57.00
2019-03-23T22:04:06.567Z,68.17
2019-03-23T22:06:37.587Z,68.12
2019-03-23T22:09:08.678Z,72.32
2019-03-23T22:11:40.455Z,73.07
2019-03-23T22:14:11.449Z,76.65
2019-03-23T22:16:42.492Z,93.55
2019-03-23T22:19:13.493Z,79.25
2019-03-23T22:21:44.491Z,93.52
2019-03-23T22:24:15.514Z,87.62
2019-03-23T22:26:47.741Z,95.87
2019-03-23T22:29:18.802Z,86.50
2019-03-23T22:31:49.732Z,90.12
2019-03-23T22:34:22.344Z,87.42
2019-03-23T22:36:53.348Z,92.75
2019-03-23T22:39:24.380Z,97.40
2019-03-23T22:41:55.368Z,90.30
2019-03-23T22:44:26.380Z,88.90
2019-03-23T22:46:57.407Z,86.70
2019-03-23T22:49:36.003Z,94.65
2019-03-23T22:52:06.950Z,94.95
2019-03-23T22:54:37.924Z,108.20
2019-03-23T22:57:08.880Z,103.32
2019-03-23T22:59:39.879Z,110.48
2019-03-23T23:02:10.818Z,99.17
2019-03-23T23:04:41.884Z,93.30
2019-03-23T23:07:13.073Z,120.87
2019-03-23T23:09:45.734Z,105.00
2019-03-23T23:12:17.650Z,114.30
2019-03-23T23:14:48.783Z,98.60
2019-03-23T23:17:19.695Z,102.90
2019-03-23T23:19:50.759Z,108.78
2019-03-23T23:22:21.648Z,94.87
2019-03-23T23:24:52.679Z,122.67
2019-03-23T23:27:24.681Z,102.65
2019-03-23T23:29:55.814Z,126.05
2019-03-23T23:32:27.958Z,109.37
2019-03-23T23:34:59.045Z,98.97
2019-03-23T23:37:29.998Z,113.20
2019-03-23T23:40:02.138Z,103.50
2019-03-23T23:42:33.205Z,108.57
2019-03-23T23:45:15.454Z,116.22
2019-03-23T23:47:41.163Z,105.35
2019-03-23T23:50:12.212Z,104.87
2019-03-23T23:52:43.209Z,94.35
2019-03-23T23:55:14.150Z,110.05
2019-03-23T23:57:45.124Z,109.78
